sensor_id;sensor_type;location;lat;lon;timestamp;P1;durP1;ratioP1;P2;durP2;ratioP2
3355;SDS011;1691;52.486;13.374;2023-02-28T00:01:28;2.67;;;2.57;;
3355;SDS011;1691;52.486;13.374;2023-02-28T00:03:56;3.50;;;3.20;;
3355;SDS011;1691;52.486;13.374;2023-02-28T00:06:24;3.77;;;3.57;;
3355;SDS011;1691;52.486;13.374;2023-02-28T00:08:51;3.00;;;2.80;;
3355;SDS011;1691;52.486;13.374;2023-02-28T00:11:19;3.23;;;3.00;;
3355;SDS011;1691;52.486;13.374;2023-02-28T00:13:47;4.60;;;3.53;;
3355;SDS011;1691;52.486;13.374;2023-02-28T00:16:15;3.40;;;3.23;;
3355;SDS011;1691;52.486;13.374;2023-02-28T00:18:46;3.87;;;3.03;;
3355;SDS011;1691;52.486;13.374;2023-02-28T00:21:15;5.40;;;3.70;;
3355;SDS011;1691;52.486;13.374;2023-02-28T00:23:44;3.43;;;3.10;;
3355;SDS011;1691;52.486;13.374;2023-02-28T00:26:11;6.60;;;4.00;;
3355;SDS011;1691;52.486;13.374;2023-02-28T00:28:38;4.53;;;3.47;;
3355;SDS011;1691;52.486;13.374;2023-02-28T00:31:05;6.50;;;3.00;;
3355;SDS011;1691;52.486;13.374;2023-02-28T00:33:32;5.33;;;4.43;;
3355;SDS011;1691;52.486;13.374;2023-02-28T00:36:03;3.60;;;3.40;;
3355;SDS011;1691;52.486;13.374;2023-02-28T00:38:33;3.30;;;3.20;;
3355;SDS011;1691;52.486;13.374;2023-02-28T00:41:00;5.30;;;3.37;;
3355;SDS011;1691;52.486;13.374;2023-02-28T00:43:32;3.63;;;3.27;;
3355;SDS011;1691;52.486;13.374;2023-02-28T00:46:00;4.03;;;3.73;;
3355;SDS011;1691;52.486;13.374;2023-02-28T00:48:28;4.13;;;3.87;;
3355;SDS011;1691;52.486;13.374;2023-02-28T00:50:55;4.07;;;3.77;;
3355;SDS011;1691;52.486;13.374;2023-02-28T00:53:22;3.90;;;3.70;;
3355;SDS011;1691;52.486;13.374;2023-02-28T00:55:49;5.17;;;4.23;;
3355;SDS011;1691;52.486;13.374;2023-02-28T00:58:17;6.47;;;3.87;;
3355;SDS011;1691;52.486;13.374;2023-02-28T01:00:44;3.70;;;3.40;;
3355;SDS011;1691;52.486;13.374;2023-02-28T01:03:18;3.93;;;3.73;;
3355;SDS011;1691;52.486;13.374;2023-02-28T01:05:46;6.17;;;4.10;;
3355;SDS011;1691;52.486;13.374;2023-02-28T01:08:14;4.03;;;3.30;;
3355;SDS011;1691;52.486;13.374;2023-02-28T01:10:41;3.33;;;2.90;;
3355;SDS011;1691;52.486;13.374;2023-02-28T01:13:08;3.33;;;3.03;;
3355;SDS011;1691;52.486;13.374;2023-02-28T01:15:35;4.63;;;4.17;;
3355;SDS011;1691;52.486;13.374;2023-02-28T01:18:02;5.57;;;4.50;;
3355;SDS011;1691;52.486;13.374;2023-02-28T01:20:29;8.53;;;4.20;;
3355;SDS011;1691;52.486;13.374;2023-02-28T01:22:56;4.57;;;4.17;;
3355;SDS011;1691;52.486;13.374;2023-02-28T01:25:23;4.30;;;3.30;;
3355;SDS011;1691;52.486;13.374;2023-02-28T01:27:50;5.87;;;4.30;;
3355;SDS011;1691;52.486;13.374;2023-02-28T01:30:18;3.37;;;3.07;;
3355;SDS011;1691;52.486;13.374;2023-02-28T01:32:45;4.57;;;4.17;;
3355;SDS011;1691;52.486;13.374;2023-02-28T01:35:12;10.93;;;5.17;;
3355;SDS011;1691;52.486;13.374;2023-02-28T01:37:39;3.20;;;3.03;;
3355;SDS011;1691;52.486;13.374;2023-02-28T01:40:06;4.70;;;4.40;;
3355;SDS011;1691;52.486;13.374;2023-02-28T01:42:34;4.40;;;4.17;;
3355;SDS011;1691;52.486;13.374;2023-02-28T01:47:45;4.00;;;3.70;;
3355;SDS011;1691;52.486;13.374;2023-02-28T01:50:21;4.20;;;3.90;;
3355;SDS011;1691;52.486;13.374;2023-02-28T01:52:54;4.37;;;3.80;;
3355;SDS011;1691;52.486;13.374;2023-02-28T01:55:24;5.10;;;4.60;;
3355;SDS011;1691;52.486;13.374;2023-02-28T01:57:55;4.10;;;3.70;;
3355;SDS011;1691;52.486;13.374;2023-02-28T02:00:25;4.50;;;4.20;;
3355;SDS011;1691;52.486;13.374;2023-02-28T02:02:55;14.90;;;3.87;;
3355;SDS011;1691;52.486;13.374;2023-02-28T02:05:27;4.33;;;3.93;;
3355;SDS011;1691;52.486;13.374;2023-02-28T02:07:58;4.30;;;4.10;;
3355;SDS011;1691;52.486;13.374;2023-02-28T02:13:14;4.40;;;4.00;;
3355;SDS011;1691;52.486;13.374;2023-02-28T02:16:17;4.70;;;4.30;;
3355;SDS011;1691;52.486;13.374;2023-02-28T02:36:07;3.83;;;3.63;;
3355;SDS011;1691;52.486;13.374;2023-02-28T02:39:06;4.77;;;4.37;;
3355;SDS011;1691;52.486;13.374;2023-02-28T02:41:54;4.53;;;4.13;;
3355;SDS011;1691;52.486;13.374;2023-02-28T02:47:32;4.50;;;4.00;;
3355;SDS011;1691;52.486;13.374;2023-02-28T02:50:01;7.03;;;4.77;;
3355;SDS011;1691;52.486;13.374;2023-02-28T02:52:34;4.63;;;4.17;;
3355;SDS011;1691;52.486;13.374;2023-02-28T02:55:11;10.30;;;4.30;;
3355;SDS011;1691;52.486;13.374;2023-02-28T02:57:53;4.97;;;4.57;;
3355;SDS011;1691;52.486;13.374;2023-02-28T03:00:30;5.03;;;4.70;;
3355;SDS011;1691;52.486;13.374;2023-02-28T03:03:05;4.57;;;4.27;;
3355;SDS011;1691;52.486;13.374;2023-02-28T03:05:39;4.70;;;4.40;;
3355;SDS011;1691;52.486;13.374;2023-02-28T03:08:12;4.77;;;4.30;;
3355;SDS011;1691;52.486;13.374;2023-02-28T03:10:44;7.50;;;4.57;;
3355;SDS011;1691;52.486;13.374;2023-02-28T03:22:14;7.23;;;4.23;;
3355;SDS011;1691;52.486;13.374;2023-02-28T03:33:34;5.40;;;5.00;;
3355;SDS011;1691;52.486;13.374;2023-02-28T03:36:10;9.63;;;6.50;;
3355;SDS011;1691;52.486;13.374;2023-02-28T03:41:18;6.33;;;5.47;;
3355;SDS011;1691;52.486;13.374;2023-02-28T03:43:50;5.73;;;5.20;;
3355;SDS011;1691;52.486;13.374;2023-02-28T03:46:47;8.83;;;5.43;;
3355;SDS011;1691;52.486;13.374;2023-02-28T03:49:22;5.13;;;4.83;;
3355;SDS011;1691;52.486;13.374;2023-02-28T03:51:58;4.73;;;4.37;;
3355;SDS011;1691;52.486;13.374;2023-02-28T03:54:35;5.27;;;4.77;;
3355;SDS011;1691;52.486;13.374;2023-02-28T03:57:15;5.23;;;4.73;;
3355;SDS011;1691;52.486;13.374;2023-02-28T03:59:56;5.37;;;4.60;;
3355;SDS011;1691;52.486;13.374;2023-02-28T04:02:32;4.73;;;4.37;;
3355;SDS011;1691;52.486;13.374;2023-02-28T04:05:00;6.07;;;5.47;;
3355;SDS011;1691;52.486;13.374;2023-02-28T04:07:30;4.97;;;4.67;;
3355;SDS011;1691;52.486;13.374;2023-02-28T04:09:57;4.77;;;4.37;;
3355;SDS011;1691;52.486;13.374;2023-02-28T04:12:25;5.27;;;4.77;;
3355;SDS011;1691;52.486;13.374;2023-02-28T04:14:53;5.10;;;4.80;;
3355;SDS011;1691;52.486;13.374;2023-02-28T04:17:20;5.67;;;5.17;;
3355;SDS011;1691;52.486;13.374;2023-02-28T04:19:47;7.13;;;6.47;;
3355;SDS011;1691;52.486;13.374;2023-02-28T04:22:14;5.33;;;5.00;;
3355;SDS011;1691;52.486;13.374;2023-02-28T04:24:43;10.07;;;7.17;;
3355;SDS011;1691;52.486;13.374;2023-02-28T04:27:10;5.23;;;4.90;;
3355;SDS011;1691;52.486;13.374;2023-02-28T04:29:37;5.93;;;5.40;;
3355;SDS011;1691;52.486;13.374;2023-02-28T04:32:04;5.73;;;5.23;;
3355;SDS011;1691;52.486;13.374;2023-02-28T04:34:32;5.43;;;4.93;;
3355;SDS011;1691;52.486;13.374;2023-02-28T04:36:59;5.27;;;4.93;;
3355;SDS011;1691;52.486;13.374;2023-02-28T04:39:38;8.93;;;4.70;;
3355;SDS011;1691;52.486;13.374;2023-02-28T04:42:06;5.57;;;5.17;;
3355;SDS011;1691;52.486;13.374;2023-02-28T04:44:33;5.40;;;5.10;;
3355;SDS011;1691;52.486;13.374;2023-02-28T04:47:00;8.80;;;6.57;;
3355;SDS011;1691;52.486;13.374;2023-02-28T04:49:27;5.80;;;5.20;;
3355;SDS011;1691;52.486;13.374;2023-02-28T04:51:54;7.53;;;5.47;;
3355;SDS011;1691;52.486;13.374;2023-02-28T04:54:21;6.40;;;5.80;;
3355;SDS011;1691;52.486;13.374;2023-02-28T04:56:48;6.63;;;6.07;;
3355;SDS011;1691;52.486;13.374;2023-02-28T04:59:16;5.87;;;5.50;;
3355;SDS011;1691;52.486;13.374;2023-02-28T05:01:47;9.53;;;6.33;;
3355;SDS011;1691;52.486;13.374;2023-02-28T05:04:15;6.13;;;5.63;;
3355;SDS011;1691;52.486;13.374;2023-02-28T05:06:42;6.10;;;5.30;;
3355;SDS011;1691;52.486;13.374;2023-02-28T05:09:09;8.13;;;4.83;;
3355;SDS011;1691;52.486;13.374;2023-02-28T05:11:39;8.33;;;6.10;;
3355;SDS011;1691;52.486;13.374;2023-02-28T05:14:11;9.77;;;6.60;;
3355;SDS011;1691;52.486;13.374;2023-02-28T05:16:40;7.10;;;6.30;;
3355;SDS011;1691;52.486;13.374;2023-02-28T05:19:07;6.20;;;5.70;;
3355;SDS011;1691;52.486;13.374;2023-02-28T05:21:35;7.47;;;5.10;;
3355;SDS011;1691;52.486;13.374;2023-02-28T05:24:05;5.47;;;4.97;;
3355;SDS011;1691;52.486;13.374;2023-02-28T05:26:36;6.90;;;5.43;;
3355;SDS011;1691;52.486;13.374;2023-02-28T05:29:09;14.40;;;6.23;;
3355;SDS011;1691;52.486;13.374;2023-02-28T05:31:36;9.30;;;6.23;;
3355;SDS011;1691;52.486;13.374;2023-02-28T05:34:04;7.43;;;5.70;;
3355;SDS011;1691;52.486;13.374;2023-02-28T05:36:31;8.57;;;5.30;;
3355;SDS011;1691;52.486;13.374;2023-02-28T05:38:59;6.50;;;5.47;;
3355;SDS011;1691;52.486;13.374;2023-02-28T05:41:25;6.37;;;5.67;;
3355;SDS011;1691;52.486;13.374;2023-02-28T05:43:53;5.27;;;4.90;;
3355;SDS011;1691;52.486;13.374;2023-02-28T05:46:21;5.03;;;4.60;;
3355;SDS011;1691;52.486;13.374;2023-02-28T05:48:48;6.03;;;5.53;;
3355;SDS011;1691;52.486;13.374;2023-02-28T05:51:15;5.33;;;4.83;;
3355;SDS011;1691;52.486;13.374;2023-02-28T05:53:43;5.33;;;4.90;;
3355;SDS011;1691;52.486;13.374;2023-02-28T05:56:10;8.37;;;5.53;;
3355;SDS011;1691;52.486;13.374;2023-02-28T05:58:37;5.87;;;5.40;;
3355;SDS011;1691;52.486;13.374;2023-02-28T06:01:31;10.43;;;6.37;;
3355;SDS011;1691;52.486;13.374;2023-02-28T06:04:14;11.00;;;5.73;;
3355;SDS011;1691;52.486;13.374;2023-02-28T06:06:56;7.63;;;5.60;;
3355;SDS011;1691;52.486;13.374;2023-02-28T06:09:24;4.90;;;4.23;;
3355;SDS011;1691;52.486;13.374;2023-02-28T06:11:51;6.50;;;5.90;;
3355;SDS011;1691;52.486;13.374;2023-02-28T06:14:18;5.57;;;5.10;;
3355;SDS011;1691;52.486;13.374;2023-02-28T06:16:47;7.13;;;6.37;;
3355;SDS011;1691;52.486;13.374;2023-02-28T06:19:14;32.70;;;15.80;;
3355;SDS011;1691;52.486;13.374;2023-02-28T06:21:42;7.03;;;6.33;;
3355;SDS011;1691;52.486;13.374;2023-02-28T06:24:09;40.03;;;19.03;;
3355;SDS011;1691;52.486;13.374;2023-02-28T06:26:36;24.30;;;12.77;;
3355;SDS011;1691;52.486;13.374;2023-02-28T06:29:03;9.23;;;8.20;;
3355;SDS011;1691;52.486;13.374;2023-02-28T06:31:30;6.30;;;5.80;;
3355;SDS011;1691;52.486;13.374;2023-02-28T06:33:58;14.53;;;6.33;;
3355;SDS011;1691;52.486;13.374;2023-02-28T06:36:25;17.33;;;6.23;;
3355;SDS011;1691;52.486;13.374;2023-02-28T06:38:52;8.93;;;6.33;;
3355;SDS011;1691;52.486;13.374;2023-02-28T06:41:24;10.00;;;5.87;;
3355;SDS011;1691;52.486;13.374;2023-02-28T06:43:53;13.33;;;6.00;;
3355;SDS011;1691;52.486;13.374;2023-02-28T06:46:21;11.33;;;5.60;;
3355;SDS011;1691;52.486;13.374;2023-02-28T06:48:48;11.83;;;6.83;;
3355;SDS011;1691;52.486;13.374;2023-02-28T06:51:17;13.27;;;7.87;;
3355;SDS011;1691;52.486;13.374;2023-02-28T06:53:50;14.43;;;6.90;;
3355;SDS011;1691;52.486;13.374;2023-02-28T06:56:17;8.80;;;6.47;;
3355;SDS011;1691;52.486;13.374;2023-02-28T06:58:47;18.33;;;7.87;;
3355;SDS011;1691;52.486;13.374;2023-02-28T07:01:16;14.23;;;8.50;;
3355;SDS011;1691;52.486;13.374;2023-02-28T07:03:45;13.97;;;9.97;;
3355;SDS011;1691;52.486;13.374;2023-02-28T07:06:13;11.77;;;9.33;;
3355;SDS011;1691;52.486;13.374;2023-02-28T07:08:40;11.17;;;7.90;;
3355;SDS011;1691;52.486;13.374;2023-02-28T07:11:07;8.77;;;7.90;;
3355;SDS011;1691;52.486;13.374;2023-02-28T07:13:34;11.20;;;8.30;;
3355;SDS011;1691;52.486;13.374;2023-02-28T07:16:05;11.60;;;8.20;;
3355;SDS011;1691;52.486;13.374;2023-02-28T07:18:35;11.33;;;8.33;;
3355;SDS011;1691;52.486;13.374;2023-02-28T07:21:04;8.53;;;7.67;;
3355;SDS011;1691;52.486;13.374;2023-02-28T07:23:34;11.57;;;8.93;;
3355;SDS011;1691;52.486;13.374;2023-02-28T07:26:04;9.07;;;7.30;;
3355;SDS011;1691;52.486;13.374;2023-02-28T07:28:33;11.23;;;8.50;;
3355;SDS011;1691;52.486;13.374;2023-02-28T07:31:04;7.67;;;6.97;;
3355;SDS011;1691;52.486;13.374;2023-02-28T07:33:32;41.77;;;25.63;;
3355;SDS011;1691;52.486;13.374;2023-02-28T07:36:04;9.90;;;8.50;;
3355;SDS011;1691;52.486;13.374;2023-02-28T07:38:35;6.77;;;6.23;;
3355;SDS011;1691;52.486;13.374;2023-02-28T07:41:03;7.33;;;6.73;;
3355;SDS011;1691;52.486;13.374;2023-02-28T07:43:31;7.07;;;6.23;;
3355;SDS011;1691;52.486;13.374;2023-02-28T07:46:06;11.00;;;6.90;;
3355;SDS011;1691;52.486;13.374;2023-02-28T07:48:36;12.73;;;5.37;;
3355;SDS011;1691;52.486;13.374;2023-02-28T07:51:03;5.03;;;4.60;;
3355;SDS011;1691;52.486;13.374;2023-02-28T07:53:30;13.23;;;4.83;;
3355;SDS011;1691;52.486;13.374;2023-02-28T07:55:58;6.60;;;4.40;;
3355;SDS011;1691;52.486;13.374;2023-02-28T07:58:27;7.07;;;3.20;;
3355;SDS011;1691;52.486;13.374;2023-02-28T08:00:55;9.73;;;4.33;;
3355;SDS011;1691;52.486;13.374;2023-02-28T08:03:23;3.70;;;3.10;;
3355;SDS011;1691;52.486;13.374;2023-02-28T08:05:51;5.23;;;3.20;;
3355;SDS011;1691;52.486;13.374;2023-02-28T08:08:20;3.37;;;3.07;;
3355;SDS011;1691;52.486;13.374;2023-02-28T08:10:47;5.03;;;4.63;;
3355;SDS011;1691;52.486;13.374;2023-02-28T08:13:14;4.33;;;4.03;;
3355;SDS011;1691;52.486;13.374;2023-02-28T08:15:41;3.77;;;3.37;;
3355;SDS011;1691;52.486;13.374;2023-02-28T08:18:09;3.10;;;2.90;;
3355;SDS011;1691;52.486;13.374;2023-02-28T08:20:36;2.77;;;2.57;;
3355;SDS011;1691;52.486;13.374;2023-02-28T08:23:03;6.77;;;3.43;;
3355;SDS011;1691;52.486;13.374;2023-02-28T08:25:30;4.03;;;2.67;;
3355;SDS011;1691;52.486;13.374;2023-02-28T08:27:57;2.00;;;1.90;;
3355;SDS011;1691;52.486;13.374;2023-02-28T08:30:24;4.03;;;3.47;;
3355;SDS011;1691;52.486;13.374;2023-02-28T08:32:51;9.07;;;2.80;;
3355;SDS011;1691;52.486;13.374;2023-02-28T08:35:18;3.30;;;3.00;;
3355;SDS011;1691;52.486;13.374;2023-02-28T08:37:47;3.77;;;2.73;;
3355;SDS011;1691;52.486;13.374;2023-02-28T08:40:15;3.30;;;3.10;;
3355;SDS011;1691;52.486;13.374;2023-02-28T08:42:45;9.03;;;2.50;;
3355;SDS011;1691;52.486;13.374;2023-02-28T08:45:13;7.03;;;3.20;;
3355;SDS011;1691;52.486;13.374;2023-02-28T08:47:40;2.00;;;1.90;;
3355;SDS011;1691;52.486;13.374;2023-02-28T08:50:08;4.03;;;2.87;;
3355;SDS011;1691;52.486;13.374;2023-02-28T08:52:35;3.33;;;2.90;;
3355;SDS011;1691;52.486;13.374;2023-02-28T08:55:02;10.77;;;2.13;;
3355;SDS011;1691;52.486;13.374;2023-02-28T08:57:29;2.60;;;2.40;;
3355;SDS011;1691;52.486;13.374;2023-02-28T08:59:56;3.70;;;2.20;;
3355;SDS011;1691;52.486;13.374;2023-02-28T09:02:23;3.30;;;1.83;;
3355;SDS011;1691;52.486;13.374;2023-02-28T09:04:50;5.10;;;3.00;;
3355;SDS011;1691;52.486;13.374;2023-02-28T09:07:17;7.80;;;2.60;;
3355;SDS011;1691;52.486;13.374;2023-02-28T09:09:44;2.43;;;2.33;;
3355;SDS011;1691;52.486;13.374;2023-02-28T09:12:24;1.90;;;1.80;;
3355;SDS011;1691;52.486;13.374;2023-02-28T09:14:52;2.03;;;1.70;;
3355;SDS011;1691;52.486;13.374;2023-02-28T09:17:20;2.90;;;2.50;;
3355;SDS011;1691;52.486;13.374;2023-02-28T09:19:47;2.77;;;2.57;;
3355;SDS011;1691;52.486;13.374;2023-02-28T09:22:15;3.00;;;2.80;;
3355;SDS011;1691;52.486;13.374;2023-02-28T09:24:42;3.33;;;2.77;;
3355;SDS011;1691;52.486;13.374;2023-02-28T09:27:10;2.83;;;2.50;;
3355;SDS011;1691;52.486;13.374;2023-02-28T09:29:37;3.03;;;2.83;;
3355;SDS011;1691;52.486;13.374;2023-02-28T09:32:04;3.20;;;2.83;;
3355;SDS011;1691;52.486;13.374;2023-02-28T09:34:34;8.30;;;2.70;;
3355;SDS011;1691;52.486;13.374;2023-02-28T09:37:03;2.23;;;2.13;;
3355;SDS011;1691;52.486;13.374;2023-02-28T09:39:30;2.33;;;2.23;;
3355;SDS011;1691;52.486;13.374;2023-02-28T09:41:57;2.33;;;2.13;;
3355;SDS011;1691;52.486;13.374;2023-02-28T09:44:42;2.37;;;2.20;;
3355;SDS011;1691;52.486;13.374;2023-02-28T09:47:18;2.70;;;2.60;;
3355;SDS011;1691;52.486;13.374;2023-02-28T09:50:06;2.90;;;2.80;;
3355;SDS011;1691;52.486;13.374;2023-02-28T09:53:01;4.17;;;1.90;;
3355;SDS011;1691;52.486;13.374;2023-02-28T10:04:09;3.60;;;2.37;;
3355;SDS011;1691;52.486;13.374;2023-02-28T10:10:45;2.43;;;2.23;;
3355;SDS011;1691;52.486;13.374;2023-02-28T10:19:08;2.30;;;1.97;;
3355;SDS011;1691;52.486;13.374;2023-02-28T10:24:45;2.33;;;2.13;;
3355;SDS011;1691;52.486;13.374;2023-02-28T10:27:24;5.53;;;2.47;;
3355;SDS011;1691;52.486;13.374;2023-02-28T10:29:57;2.00;;;1.90;;
3355;SDS011;1691;52.486;13.374;2023-02-28T10:32:27;2.80;;;2.33;;
3355;SDS011;1691;52.486;13.374;2023-02-28T10:35:20;2.40;;;2.23;;
3355;SDS011;1691;52.486;13.374;2023-02-28T10:37:55;2.40;;;2.20;;
3355;SDS011;1691;52.486;13.374;2023-02-28T10:43:03;3.30;;;2.80;;
3355;SDS011;1691;52.486;13.374;2023-02-28T10:45:33;2.33;;;2.10;;
3355;SDS011;1691;52.486;13.374;2023-02-28T10:53:35;2.20;;;2.00;;
3355;SDS011;1691;52.486;13.374;2023-02-28T10:56:25;3.50;;;2.13;;
3355;SDS011;1691;52.486;13.374;2023-02-28T10:58:57;5.17;;;2.20;;
3355;SDS011;1691;52.486;13.374;2023-02-28T11:01:45;2.63;;;2.53;;
3355;SDS011;1691;52.486;13.374;2023-02-28T11:06:59;2.50;;;2.40;;
3355;SDS011;1691;52.486;13.374;2023-02-28T11:10:06;2.90;;;2.70;;
3355;SDS011;1691;52.486;13.374;2023-02-28T11:12:45;2.90;;;2.70;;
3355;SDS011;1691;52.486;13.374;2023-02-28T11:17:54;3.83;;;3.03;;
3355;SDS011;1691;52.486;13.374;2023-02-28T11:20:29;2.87;;;2.60;;
3355;SDS011;1691;52.486;13.374;2023-02-28T11:22:59;3.20;;;3.00;;
3355;SDS011;1691;52.486;13.374;2023-02-28T11:25:31;3.20;;;3.00;;
3355;SDS011;1691;52.486;13.374;2023-02-28T11:28:03;4.40;;;2.30;;
3355;SDS011;1691;52.486;13.374;2023-02-28T11:30:34;2.50;;;2.40;;
3355;SDS011;1691;52.486;13.374;2023-02-28T11:33:23;5.13;;;3.70;;
3355;SDS011;1691;52.486;13.374;2023-02-28T11:36:02;3.10;;;2.77;;
3355;SDS011;1691;52.486;13.374;2023-02-28T11:38:37;2.70;;;2.50;;
3355;SDS011;1691;52.486;13.374;2023-02-28T11:46:51;4.70;;;3.20;;
3355;SDS011;1691;52.486;13.374;2023-02-28T11:49:48;3.20;;;2.97;;
3355;SDS011;1691;52.486;13.374;2023-02-28T11:53:05;3.47;;;3.27;;
3355;SDS011;1691;52.486;13.374;2023-02-28T11:55:51;8.93;;;4.03;;
3355;SDS011;1691;52.486;13.374;2023-02-28T12:04:42;3.20;;;3.00;;
3355;SDS011;1691;52.486;13.374;2023-02-28T12:07:31;4.90;;;3.43;;
3355;SDS011;1691;52.486;13.374;2023-02-28T12:10:23;3.90;;;3.27;;
3355;SDS011;1691;52.486;13.374;2023-02-28T12:15:36;13.70;;;4.00;;
3355;SDS011;1691;52.486;13.374;2023-02-28T12:21:38;3.53;;;3.33;;
3355;SDS011;1691;52.486;13.374;2023-02-28T12:26:44;3.50;;;3.33;;
3355;SDS011;1691;52.486;13.374;2023-02-28T12:31:56;4.60;;;3.83;;
3355;SDS011;1691;52.486;13.374;2023-02-28T12:34:36;2.70;;;2.60;;
3355;SDS011;1691;52.486;13.374;2023-02-28T12:37:09;4.00;;;3.60;;
3355;SDS011;1691;52.486;13.374;2023-02-28T12:39:46;3.93;;;3.50;;
3355;SDS011;1691;52.486;13.374;2023-02-28T12:42:19;2.80;;;2.70;;
3355;SDS011;1691;52.486;13.374;2023-02-28T12:47:44;5.00;;;3.90;;
3355;SDS011;1691;52.486;13.374;2023-02-28T12:50:17;3.30;;;3.10;;
3355;SDS011;1691;52.486;13.374;2023-02-28T12:55:30;7.10;;;2.93;;
3355;SDS011;1691;52.486;13.374;2023-02-28T12:58:43;3.33;;;3.07;;
3355;SDS011;1691;52.486;13.374;2023-02-28T13:07:49;3.57;;;2.93;;
3355;SDS011;1691;52.486;13.374;2023-02-28T13:10:49;3.07;;;2.97;;
3355;SDS011;1691;52.486;13.374;2023-02-28T13:13:21;3.43;;;2.80;;
3355;SDS011;1691;52.486;13.374;2023-02-28T13:16:03;3.27;;;2.80;;
3355;SDS011;1691;52.486;13.374;2023-02-28T13:18:37;4.70;;;3.30;;
3355;SDS011;1691;52.486;13.374;2023-02-28T13:21:06;3.00;;;2.80;;
3355;SDS011;1691;52.486;13.374;2023-02-28T13:26:07;12.43;;;3.50;;
3355;SDS011;1691;52.486;13.374;2023-02-28T13:31:26;2.87;;;2.70;;
3355;SDS011;1691;52.486;13.374;2023-02-28T13:34:40;3.07;;;2.77;;
3355;SDS011;1691;52.486;13.374;2023-02-28T13:38:32;2.70;;;2.50;;
3355;SDS011;1691;52.486;13.374;2023-02-28T13:45:20;3.90;;;3.13;;
3355;SDS011;1691;52.486;13.374;2023-02-28T13:48:26;4.67;;;2.57;;
3355;SDS011;1691;52.486;13.374;2023-02-28T13:51:49;4.47;;;4.27;;
3355;SDS011;1691;52.486;13.374;2023-02-28T13:59:22;3.70;;;3.40;;
3355;SDS011;1691;52.486;13.374;2023-02-28T14:10:28;2.70;;;2.50;;
3355;SDS011;1691;52.486;13.374;2023-02-28T14:14:53;4.80;;;3.33;;
3355;SDS011;1691;52.486;13.374;2023-02-28T14:36:44;3.60;;;3.40;;
3355;SDS011;1691;52.486;13.374;2023-02-28T14:39:33;2.80;;;2.70;;
3355;SDS011;1691;52.486;13.374;2023-02-28T14:50:24;3.20;;;3.00;;
3355;SDS011;1691;52.486;13.374;2023-02-28T14:53:44;2.93;;;2.73;;
3355;SDS011;1691;52.486;13.374;2023-02-28T14:56:48;3.83;;;2.83;;
3355;SDS011;1691;52.486;13.374;2023-02-28T15:00:14;2.80;;;2.70;;
3355;SDS011;1691;52.486;13.374;2023-02-28T15:03:23;3.57;;;3.37;;
3355;SDS011;1691;52.486;13.374;2023-02-28T15:06:34;3.27;;;2.97;;
3355;SDS011;1691;52.486;13.374;2023-02-28T15:09:20;2.80;;;2.70;;
3355;SDS011;1691;52.486;13.374;2023-02-28T15:12:03;3.33;;;3.13;;
3355;SDS011;1691;52.486;13.374;2023-02-28T15:14:59;3.10;;;3.00;;
3355;SDS011;1691;52.486;13.374;2023-02-28T15:17:48;5.57;;;2.63;;
3355;SDS011;1691;52.486;13.374;2023-02-28T15:20:31;3.60;;;3.40;;
3355;SDS011;1691;52.486;13.374;2023-02-28T15:23:09;3.07;;;2.90;;
3355;SDS011;1691;52.486;13.374;2023-02-28T15:25:56;5.13;;;3.40;;
3355;SDS011;1691;52.486;13.374;2023-02-28T15:28:44;3.50;;;3.30;;
3355;SDS011;1691;52.486;13.374;2023-02-28T15:31:43;3.60;;;2.50;;
3355;SDS011;1691;52.486;13.374;2023-02-28T15:37:33;3.43;;;3.13;;
3355;SDS011;1691;52.486;13.374;2023-02-28T15:40:29;3.43;;;3.23;;
3355;SDS011;1691;52.486;13.374;2023-02-28T15:43:25;6.90;;;2.83;;
3355;SDS011;1691;52.486;13.374;2023-02-28T15:46:12;2.73;;;2.63;;
3355;SDS011;1691;52.486;13.374;2023-02-28T15:49:01;2.67;;;2.57;;
3355;SDS011;1691;52.486;13.374;2023-02-28T15:52:06;4.17;;;3.87;;
3355;SDS011;1691;52.486;13.374;2023-02-28T15:55:09;9.60;;;3.50;;
3355;SDS011;1691;52.486;13.374;2023-02-28T15:58:07;3.63;;;3.40;;
3355;SDS011;1691;52.486;13.374;2023-02-28T16:01:16;7.70;;;4.90;;
3355;SDS011;1691;52.486;13.374;2023-02-28T16:04:35;4.63;;;4.03;;
3355;SDS011;1691;52.486;13.374;2023-02-28T16:08:21;4.80;;;3.00;;
3355;SDS011;1691;52.486;13.374;2023-02-28T16:10:57;3.30;;;3.10;;
3355;SDS011;1691;52.486;13.374;2023-02-28T16:13:31;4.70;;;3.77;;
3355;SDS011;1691;52.486;13.374;2023-02-28T16:16:21;5.57;;;4.20;;
3355;SDS011;1691;52.486;13.374;2023-02-28T16:19:14;3.43;;;3.23;;
3355;SDS011;1691;52.486;13.374;2023-02-28T16:22:07;4.50;;;3.57;;
3355;SDS011;1691;52.486;13.374;2023-02-28T16:25:10;4.60;;;4.20;;
3355;SDS011;1691;52.486;13.374;2023-02-28T16:28:37;4.30;;;4.00;;
3355;SDS011;1691;52.486;13.374;2023-02-28T16:38:58;5.40;;;4.20;;
3355;SDS011;1691;52.486;13.374;2023-02-28T16:41:51;3.37;;;3.27;;
3355;SDS011;1691;52.486;13.374;2023-02-28T16:44:33;4.00;;;3.67;;
3355;SDS011;1691;52.486;13.374;2023-02-28T16:47:58;3.80;;;3.60;;
3355;SDS011;1691;52.486;13.374;2023-02-28T16:51:36;5.30;;;5.00;;
3355;SDS011;1691;52.486;13.374;2023-02-28T16:55:04;5.40;;;3.33;;
3355;SDS011;1691;52.486;13.374;2023-02-28T17:01:24;4.30;;;3.90;;
3355;SDS011;1691;52.486;13.374;2023-02-28T17:04:12;4.73;;;4.30;;
3355;SDS011;1691;52.486;13.374;2023-02-28T17:06:48;4.47;;;4.17;;
3355;SDS011;1691;52.486;13.374;2023-02-28T17:10:10;5.40;;;4.90;;
3355;SDS011;1691;52.486;13.374;2023-02-28T17:12:57;4.07;;;3.77;;
3355;SDS011;1691;52.486;13.374;2023-02-28T17:15:40;4.20;;;4.00;;
3355;SDS011;1691;52.486;13.374;2023-02-28T17:18:28;5.13;;;4.63;;
3355;SDS011;1691;52.486;13.374;2023-02-28T17:21:09;4.60;;;4.20;;
3355;SDS011;1691;52.486;13.374;2023-02-28T17:23:52;4.10;;;3.80;;
3355;SDS011;1691;52.486;13.374;2023-02-28T17:26:34;4.53;;;4.13;;
3355;SDS011;1691;52.486;13.374;2023-02-28T17:29:21;9.07;;;4.50;;
3355;SDS011;1691;52.486;13.374;2023-02-28T17:32:17;4.63;;;4.33;;
3355;SDS011;1691;52.486;13.374;2023-02-28T17:35:15;4.17;;;3.87;;
3355;SDS011;1691;52.486;13.374;2023-02-28T17:38:03;7.00;;;4.83;;
3355;SDS011;1691;52.486;13.374;2023-02-28T17:41:25;4.43;;;4.03;;
3355;SDS011;1691;52.486;13.374;2023-02-28T17:44:23;5.57;;;5.03;;
3355;SDS011;1691;52.486;13.374;2023-02-28T17:47:11;5.50;;;5.00;;
3355;SDS011;1691;52.486;13.374;2023-02-28T17:50:19;5.13;;;4.63;;
3355;SDS011;1691;52.486;13.374;2023-02-28T17:53:41;7.70;;;4.43;;
3355;SDS011;1691;52.486;13.374;2023-02-28T17:56:36;7.87;;;4.90;;
3355;SDS011;1691;52.486;13.374;2023-02-28T17:59:43;10.23;;;6.47;;
3355;SDS011;1691;52.486;13.374;2023-02-28T18:03:02;5.17;;;4.77;;
3355;SDS011;1691;52.486;13.374;2023-02-28T18:06:02;11.33;;;5.80;;
3355;SDS011;1691;52.486;13.374;2023-02-28T18:08:50;4.97;;;4.67;;
3355;SDS011;1691;52.486;13.374;2023-02-28T18:11:27;5.40;;;4.90;;
3355;SDS011;1691;52.486;13.374;2023-02-28T18:14:11;27.47;;;15.20;;
3355;SDS011;1691;52.486;13.374;2023-02-28T18:16:42;8.40;;;5.60;;
3355;SDS011;1691;52.486;13.374;2023-02-28T18:19:32;8.43;;;6.67;;
3355;SDS011;1691;52.486;13.374;2023-02-28T18:22:15;12.13;;;6.67;;
3355;SDS011;1691;52.486;13.374;2023-02-28T18:24:50;12.40;;;6.50;;
3355;SDS011;1691;52.486;13.374;2023-02-28T18:27:21;10.53;;;6.13;;
3355;SDS011;1691;52.486;13.374;2023-02-28T18:29:54;16.40;;;6.67;;
3355;SDS011;1691;52.486;13.374;2023-02-28T18:32:24;8.83;;;6.87;;
3355;SDS011;1691;52.486;13.374;2023-02-28T18:35:04;10.27;;;7.30;;
3355;SDS011;1691;52.486;13.374;2023-02-28T18:37:32;10.70;;;6.60;;
3355;SDS011;1691;52.486;13.374;2023-02-28T18:40:28;13.23;;;5.87;;
3355;SDS011;1691;52.486;13.374;2023-02-28T18:43:12;17.63;;;5.93;;
3355;SDS011;1691;52.486;13.374;2023-02-28T18:45:57;10.67;;;6.87;;
3355;SDS011;1691;52.486;13.374;2023-02-28T18:48:36;17.00;;;6.73;;
3355;SDS011;1691;52.486;13.374;2023-02-28T18:51:38;12.87;;;6.07;;
3355;SDS011;1691;52.486;13.374;2023-02-28T18:54:15;7.43;;;6.83;;
3355;SDS011;1691;52.486;13.374;2023-02-28T19:01:18;8.73;;;7.90;;
3355;SDS011;1691;52.486;13.374;2023-02-28T19:07:52;9.53;;;7.20;;
3355;SDS011;1691;52.486;13.374;2023-02-28T19:11:12;14.47;;;9.37;;
3355;SDS011;1691;52.486;13.374;2023-02-28T19:18:00;18.53;;;9.57;;